Winnebago Heights, Iowa
Current Conditions -  °F | °C
As of 3:53 AM on Friday 28 Nov 2014 (Local Time) from KMCW Reporting Station
Broken Clouds Broken Clouds  
Wind Chill: -5°   Ceiling: 12000
Heat Index: 12°   Visibility: 10mi
Dew Point:   Wind: 17mph
Humidity: 70%   Direction: 140°SE
Pressure: 30.07"   Gusts: NA
Location:  43.1451°N, 93.1385°W
Report Text: KMCW 280953Z AUTO 14015KT 10SM BKN120 M11/M16 A3007 RMK AO2 SLP206 T11111156
Loading
Personal Weather Stations






























Interactive Weather Map New forecast layout! Learn more

10-Day Weather Forecast

Advertisements
Track Severe Weather on mobile